createdAt,value
2019-05-14T00:01:11.882Z,92.40
2019-05-14T00:03:41.455Z,92.70
2019-05-14T00:06:11.479Z,93.60
2019-05-14T00:08:41.884Z,93.80
2019-05-14T00:11:13.049Z,93.70
2019-05-14T00:13:41.733Z,93.40
2019-05-14T00:16:11.896Z,93.20
2019-05-14T00:18:42.002Z,93.20
2019-05-14T00:21:12.212Z,93.40
2019-05-14T00:23:44.320Z,93.40
2019-05-14T00:26:13.175Z,93.60
2019-05-14T00:28:42.327Z,93.80
2019-05-14T00:31:12.105Z,93.90
2019-05-14T00:33:41.966Z,93.70
2019-05-14T00:36:11.380Z,93.80
2019-05-14T00:38:41.959Z,93.80
2019-05-14T00:41:11.180Z,94.00
2019-05-14T00:43:41.706Z,94.10
2019-05-14T00:46:11.840Z,93.90
2019-05-14T00:48:43.834Z,94.20
2019-05-14T00:51:12.682Z,94.40
2019-05-14T00:53:42.079Z,93.60
2019-05-14T00:56:11.394Z,93.70
2019-05-14T00:58:41.767Z,94.70
2019-05-14T01:01:11.851Z,95.10
2019-05-14T01:03:41.521Z,95.10
2019-05-14T01:06:11.385Z,95.20
2019-05-14T01:08:41.355Z,95.30
2019-05-14T01:11:11.877Z,95.40
2019-05-14T01:13:41.704Z,95.10
2019-05-14T01:16:12.028Z,95.70
2019-05-14T01:18:41.555Z,95.60
2019-05-14T01:21:11.704Z,95.60
2019-05-14T01:23:41.647Z,95.40
2019-05-14T01:26:11.513Z,95.50
2019-05-14T01:28:41.546Z,96.00
2019-05-14T01:31:11.361Z,96.30
2019-05-14T01:33:41.312Z,96.50
2019-05-14T01:36:12.192Z,96.60
2019-05-14T01:38:41.906Z,96.60
2019-05-14T01:41:11.796Z,96.60
2019-05-14T01:43:41.937Z,96.80
2019-05-14T01:46:12.125Z,96.80
2019-05-14T01:48:41.739Z,96.80
2019-05-14T01:51:11.908Z,95.60
2019-05-14T01:53:41.671Z,95.70
2019-05-14T01:56:11.991Z,96.70
2019-05-14T01:58:41.741Z,96.80
2019-05-14T02:01:12.024Z,96.20
2019-05-14T02:03:41.271Z,96.20
2019-05-14T02:06:11.903Z,96.30
2019-05-14T02:08:41.362Z,96.50
2019-05-14T02:11:12.110Z,96.30
2019-05-14T02:13:41.472Z,96.20
2019-05-14T02:16:13.017Z,96.10
2019-05-14T02:18:43.860Z,96.40
2019-05-14T02:21:12.645Z,96.40
2019-05-14T02:23:42.079Z,96.30
2019-05-14T02:26:11.473Z,96.40
2019-05-14T02:28:42.035Z,96.20
2019-05-14T02:31:11.312Z,96.10
2019-05-14T02:33:40.034Z,96.30
2019-05-14T02:36:10.460Z,96.40
2019-05-14T02:38:40.359Z,96.60
2019-05-14T02:41:09.979Z,96.50
2019-05-14T02:43:40.851Z,96.30
2019-05-14T02:46:16.227Z,96.20
2019-05-14T02:48:40.565Z,96.40
2019-05-14T02:51:10.448Z,96.20
2019-05-14T02:53:39.882Z,96.50
2019-05-14T02:56:10.412Z,96.00
2019-05-14T02:58:40.586Z,96.30
2019-05-14T03:01:12.862Z,96.50
2019-05-14T03:03:41.673Z,96.50
2019-05-14T03:06:10.429Z,96.60
2019-05-14T03:08:39.410Z,96.70
2019-05-14T03:11:09.472Z,96.80
2019-05-14T03:13:40.082Z,97.00
2019-05-14T03:16:22.489Z,97.00
2019-05-14T03:18:39.911Z,97.20
2019-05-14T03:21:09.526Z,97.00
2019-05-14T03:23:39.329Z,96.90
2019-05-14T03:26:09.599Z,97.00
2019-05-14T03:28:39.814Z,97.20
2019-05-14T03:31:12.604Z,97.50
2019-05-14T03:33:43.796Z,97.20
2019-05-14T03:36:18.202Z,97.30
2019-05-14T03:38:41.681Z,97.30
2019-05-14T03:41:13.905Z,97.20
2019-05-14T03:43:41.056Z,97.40
2019-05-14T03:46:10.333Z,97.30
2019-05-14T03:48:40.165Z,97.30
2019-05-14T03:51:09.260Z,97.10
2019-05-14T03:53:55.932Z,97.00
2019-05-14T03:56:10.359Z,97.30
2019-05-14T03:58:39.512Z,97.20
2019-05-14T04:01:09.780Z,97.30
2019-05-14T04:03:39.941Z,97.40
2019-05-14T04:06:10.218Z,96.90
2019-05-14T04:08:41.742Z,96.90
2019-05-14T04:11:11.990Z,97.30
2019-05-14T04:13:41.632Z,97.60
2019-05-14T04:16:13.430Z,97.70
2019-05-14T04:18:44.570Z,97.60
2019-05-14T04:21:15.238Z,97.70
2019-05-14T04:23:51.015Z,97.60
2019-05-14T04:26:24.623Z,97.70
2019-05-14T04:28:55.278Z,97.70
2019-05-14T04:31:24.084Z,97.60
2019-05-14T04:33:54.375Z,97.60
2019-05-14T04:36:23.305Z,96.80
2019-05-14T04:38:55.166Z,97.30
2019-05-14T04:41:22.613Z,97.50
2019-05-14T04:43:51.528Z,97.30
2019-05-14T04:46:20.443Z,97.40
2019-05-14T04:48:50.722Z,97.40
2019-05-14T04:51:20.250Z,97.50
2019-05-14T04:53:50.107Z,97.10
2019-05-14T04:56:19.919Z,97.20
2019-05-14T04:58:50.039Z,97.40
2019-05-14T05:01:20.753Z,97.20
2019-05-14T05:03:50.669Z,97.30
2019-05-14T05:06:19.907Z,97.30
2019-05-14T05:08:49.727Z,97.20
2019-05-14T05:11:21.174Z,97.30
2019-05-14T05:13:49.827Z,97.30
2019-05-14T05:16:19.424Z,97.20
2019-05-14T05:18:49.347Z,97.30
2019-05-14T05:21:19.441Z,97.50
2019-05-14T05:23:49.274Z,97.40
2019-05-14T05:26:18.793Z,97.20
2019-05-14T05:29:00.014Z,97.20
2019-05-14T05:31:18.661Z,97.10
2019-05-14T05:33:48.968Z,97.00
2019-05-14T05:36:18.544Z,97.00
2019-05-14T05:38:49.034Z,97.00
2019-05-14T05:41:19.104Z,96.90
2019-05-14T05:43:48.626Z,96.80
2019-05-14T05:46:19.136Z,96.80
2019-05-14T05:48:48.389Z,96.60
2019-05-14T05:51:18.779Z,96.80
2019-05-14T05:53:48.507Z,96.80
2019-05-14T05:56:18.649Z,96.50
2019-05-14T05:58:48.980Z,96.20
2019-05-14T06:01:19.651Z,95.70
2019-05-14T06:03:49.373Z,96.30
2019-05-14T06:06:19.218Z,95.80
2019-05-14T06:08:49.128Z,95.80
2019-05-14T06:11:20.410Z,96.20
2019-05-14T06:13:49.249Z,95.60
2019-05-14T06:16:18.722Z,95.10
2019-05-14T06:18:48.309Z,94.80
2019-05-14T06:21:19.080Z,94.60
2019-05-14T06:23:49.311Z,94.80
2019-05-14T06:26:19.203Z,94.60
2019-05-14T06:28:49.694Z,94.40
2019-05-14T06:31:19.784Z,94.50
2019-05-14T06:33:48.931Z,94.30
2019-05-14T06:36:19.475Z,94.30
2019-05-14T06:38:49.413Z,94.20
2019-05-14T06:41:19.714Z,94.30
2019-05-14T06:43:48.893Z,94.90
2019-05-14T06:46:19.421Z,95.10
2019-05-14T06:48:48.889Z,94.90
2019-05-14T06:51:19.884Z,95.10
2019-05-14T06:53:49.897Z,95.00
2019-05-14T06:56:21.373Z,94.90
2019-05-14T06:58:49.403Z,94.80
2019-05-14T07:01:18.771Z,94.70
2019-05-14T07:03:48.933Z,94.50
2019-05-14T07:06:18.797Z,94.00
2019-05-14T07:08:48.623Z,94.00
2019-05-14T07:11:19.303Z,92.90
2019-05-14T07:13:49.217Z,92.10
2019-05-14T07:16:19.766Z,90.60
2019-05-14T07:18:53.719Z,90.30
2019-05-14T07:21:19.594Z,88.70
2019-05-14T07:23:48.876Z,87.70
2019-05-14T07:26:19.327Z,87.60
2019-05-14T07:28:49.010Z,86.90
2019-05-14T07:31:19.268Z,87.90
2019-05-14T07:33:49.317Z,87.00
2019-05-14T07:36:19.031Z,89.30
2019-05-14T07:38:48.895Z,89.30
2019-05-14T07:41:19.291Z,87.60
2019-05-14T07:43:48.559Z,90.00
2019-05-14T07:46:19.079Z,87.20
2019-05-14T07:49:03.991Z,87.40
2019-05-14T07:51:19.149Z,86.50
2019-05-14T07:53:48.906Z,86.50
2019-05-14T07:56:18.675Z,86.80
2019-05-14T07:58:49.148Z,84.50
2019-05-14T08:01:20.375Z,85.40
2019-05-14T08:03:49.215Z,86.50
2019-05-14T08:06:18.987Z,86.70
2019-05-14T08:08:49.276Z,86.10
2019-05-14T08:11:19.122Z,87.80
2019-05-14T08:13:49.325Z,87.20
2019-05-14T08:16:18.732Z,86.00
2019-05-14T08:18:48.714Z,83.70
2019-05-14T08:21:19.450Z,83.30
2019-05-14T08:23:48.415Z,81.70
2019-05-14T08:26:19.092Z,80.60
2019-05-14T08:28:48.934Z,82.60
2019-05-14T08:31:18.834Z,81.40
2019-05-14T08:33:48.772Z,81.80
2019-05-14T08:36:18.797Z,81.40
2019-05-14T08:38:50.139Z,81.00
2019-05-14T08:41:19.888Z,81.00
2019-05-14T08:43:49.091Z,81.70
2019-05-14T08:46:19.186Z,81.10
2019-05-14T08:48:49.592Z,80.60
2019-05-14T08:51:18.971Z,81.40
2019-05-14T08:53:50.418Z,83.80
2019-05-14T08:56:19.231Z,82.20
2019-05-14T08:58:49.490Z,82.40
2019-05-14T09:01:19.483Z,80.90
2019-05-14T09:03:49.463Z,80.90
2019-05-14T09:06:18.768Z,81.20
2019-05-14T09:08:49.616Z,82.10
2019-05-14T09:11:24.724Z,83.00
2019-05-14T09:13:49.182Z,82.50
2019-05-14T09:16:19.512Z,82.90
2019-05-14T09:18:49.256Z,83.50
2019-05-14T09:21:20.446Z,84.10
2019-05-14T09:23:49.058Z,84.30
2019-05-14T09:26:18.235Z,85.90
2019-05-14T09:28:48.316Z,84.10
2019-05-14T09:31:19.848Z,83.80
2019-05-14T09:33:49.405Z,83.70
2019-05-14T09:36:23.406Z,84.50
2019-05-14T09:38:49.698Z,85.30
2019-05-14T09:41:20.248Z,85.70
2019-05-14T09:43:49.092Z,85.80
2019-05-14T09:46:18.656Z,85.10
2019-05-14T09:48:48.701Z,85.60
2019-05-14T09:51:18.974Z,85.90
2019-05-14T09:53:48.964Z,83.20
2019-05-14T09:56:18.711Z,84.60
2019-05-14T09:58:49.565Z,81.50
2019-05-14T10:01:19.433Z,81.90
2019-05-14T10:03:49.779Z,80.70
2019-05-14T10:06:20.619Z,80.20
2019-05-14T10:08:49.465Z,81.00
2019-05-14T10:11:18.410Z,83.00
2019-05-14T10:13:48.425Z,79.80
2019-05-14T10:16:19.057Z,82.00
2019-05-14T10:18:50.846Z,80.40
2019-05-14T10:21:19.320Z,79.70
2019-05-14T10:23:48.094Z,79.30
2019-05-14T10:26:18.643Z,79.40
2019-05-14T10:28:48.506Z,79.30
2019-05-14T10:31:18.574Z,77.80
2019-05-14T10:33:48.500Z,78.10
2019-05-14T10:36:19.094Z,79.10
2019-05-14T10:38:48.248Z,80.80
2019-05-14T10:41:18.366Z,79.50
2019-05-14T10:43:49.654Z,77.30
2019-05-14T10:46:19.280Z,78.20
2019-05-14T10:48:48.542Z,76.20
2019-05-14T10:51:18.319Z,77.00
2019-05-14T10:53:48.798Z,77.00
2019-05-14T10:56:19.366Z,74.60
2019-05-14T10:58:49.070Z,74.60
2019-05-14T11:01:22.316Z,74.40
2019-05-14T11:03:48.939Z,75.00
2019-05-14T11:06:19.345Z,75.40
2019-05-14T11:08:49.146Z,75.70
2019-05-14T11:11:18.660Z,74.20
2019-05-14T11:13:47.605Z,75.20
2019-05-14T11:16:18.772Z,74.40
2019-05-14T11:18:49.719Z,73.20
2019-05-14T11:21:25.804Z,73.70
2019-05-14T11:23:49.020Z,71.00
2019-05-14T11:26:18.705Z,72.10
2019-05-14T11:28:49.169Z,72.10
2019-05-14T11:31:19.318Z,72.00
2019-05-14T11:33:49.745Z,70.10
2019-05-14T11:36:19.405Z,70.30
2019-05-14T11:38:50.741Z,71.70
2019-05-14T11:41:19.327Z,72.20
2019-05-14T11:43:49.344Z,72.70
2019-05-14T11:46:33.065Z,73.50
2019-05-14T11:48:49.319Z,69.40
2019-05-14T11:51:20.609Z,73.10
2019-05-14T11:53:49.639Z,69.60
2019-05-14T11:56:19.411Z,68.50
2019-05-14T11:58:48.698Z,66.80
2019-05-14T12:01:18.830Z,62.60
2019-05-14T12:03:50.523Z,64.60
2019-05-14T12:06:18.759Z,60.90
2019-05-14T12:08:47.703Z,60.60
2019-05-14T12:11:19.270Z,58.70
2019-05-14T12:13:48.647Z,62.70
2019-05-14T12:16:17.397Z,60.30
2019-05-14T12:18:48.292Z,62.10
2019-05-14T12:21:16.593Z,61.90
2019-05-14T12:23:45.390Z,64.10
2019-05-14T12:26:14.196Z,65.40
2019-05-14T12:28:42.943Z,64.90
2019-05-14T12:31:11.715Z,64.60
2019-05-14T12:33:42.073Z,64.60
2019-05-14T12:36:10.876Z,64.80
2019-05-14T12:38:39.741Z,64.80
2019-05-14T12:41:09.161Z,65.10
2019-05-14T12:43:39.638Z,65.80
2019-05-14T12:46:10.464Z,65.20
2019-05-14T12:48:39.607Z,65.60
2019-05-14T12:51:09.002Z,65.60
2019-05-14T12:53:39.438Z,67.80
2019-05-14T12:56:08.897Z,68.00
2019-05-14T12:58:42.799Z,69.20
2019-05-14T13:01:09.158Z,67.60
2019-05-14T13:03:38.191Z,64.70
2019-05-14T13:06:09.674Z,65.40
2019-05-14T13:08:38.603Z,65.50
2019-05-14T13:11:09.654Z,67.20
2019-05-14T13:13:42.342Z,65.50
2019-05-14T13:16:08.855Z,66.00
2019-05-14T13:18:38.773Z,65.50
2019-05-14T13:21:07.777Z,64.30
2019-05-14T13:23:38.400Z,65.70
2019-05-14T13:26:10.226Z,65.70
2019-05-14T13:28:39.838Z,67.80
2019-05-14T13:31:09.045Z,76.50
2019-05-14T13:33:39.233Z,86.10
2019-05-14T13:36:08.573Z,88.50
2019-05-14T13:38:39.793Z,89.00
2019-05-14T13:41:08.627Z,90.10
2019-05-14T13:43:39.192Z,90.20
2019-05-14T13:46:10.426Z,90.00
2019-05-14T13:48:42.867Z,89.60
2019-05-14T13:51:09.153Z,89.30
2019-05-14T13:53:39.037Z,89.00
2019-05-14T13:56:09.053Z,87.70
2019-05-14T13:58:38.094Z,84.90
2019-05-14T14:01:09.685Z,86.50
2019-05-14T14:03:46.661Z,86.60
2019-05-14T14:06:10.428Z,85.10
2019-05-14T14:08:42.243Z,85.60
2019-05-14T14:11:12.609Z,82.30
2019-05-14T14:13:39.300Z,79.50
2019-05-14T14:16:13.738Z,73.10
2019-05-14T14:18:39.649Z,71.00
2019-05-14T14:21:09.683Z,69.10
2019-05-14T14:23:39.265Z,67.20
2019-05-14T14:26:09.439Z,68.70
2019-05-14T14:28:39.666Z,68.70
2019-05-14T14:31:10.992Z,68.00
2019-05-14T14:33:39.437Z,66.80
2019-05-14T14:36:08.382Z,66.80
2019-05-14T14:38:39.849Z,64.70
2019-05-14T14:41:09.995Z,64.60
2019-05-14T14:43:43.250Z,66.70
2019-05-14T14:46:14.295Z,66.60
2019-05-14T14:48:42.389Z,66.30
2019-05-14T14:51:11.191Z,62.20
2019-05-14T14:53:52.312Z,61.80
2019-05-14T14:56:10.555Z,62.20
2019-05-14T14:58:39.458Z,62.30
2019-05-14T15:01:08.870Z,64.00
2019-05-14T15:03:38.171Z,66.40
2019-05-14T15:06:19.895Z,66.70
2019-05-14T15:08:49.649Z,67.60
2019-05-14T15:11:18.898Z,69.00
2019-05-14T15:13:48.246Z,67.90
2019-05-14T15:16:19.991Z,67.60
2019-05-14T15:18:49.713Z,65.80
2019-05-14T15:21:19.324Z,64.10
2019-05-14T15:24:15.107Z,63.20
2019-05-14T15:26:38.649Z,64.20
2019-05-14T15:29:09.947Z,65.90
2019-05-14T15:31:38.617Z,68.20
2019-05-14T15:34:08.994Z,67.90
2019-05-14T15:36:41.278Z,68.70
2019-05-14T15:39:11.306Z,66.60
2019-05-14T15:41:40.126Z,67.00
2019-05-14T15:44:09.194Z,68.90
2019-05-14T15:46:41.838Z,66.50
2019-05-14T15:49:09.162Z,67.50
2019-05-14T15:51:39.752Z,64.90
2019-05-14T15:54:34.637Z,63.20
2019-05-14T15:56:39.484Z,62.40
2019-05-14T15:59:08.818Z,64.70
2019-05-14T16:01:39.786Z,66.10
2019-05-14T16:04:11.426Z,67.70
2019-05-14T16:06:38.937Z,68.60
2019-05-14T16:09:19.781Z,68.30
2019-05-14T16:11:48.601Z,65.90
2019-05-14T16:14:19.171Z,63.70
2019-05-14T16:16:48.689Z,63.10
2019-05-14T16:19:19.059Z,61.50
2019-05-14T16:21:48.023Z,62.10
2019-05-14T16:24:22.441Z,60.20
2019-05-14T16:26:50.084Z,59.20
2019-05-14T16:29:19.256Z,56.80
2019-05-14T16:31:49.335Z,59.20
2019-05-14T16:34:18.180Z,60.70
2019-05-14T16:36:48.789Z,61.10
2019-05-14T16:39:19.246Z,64.70
2019-05-14T16:41:50.103Z,64.30
2019-05-14T16:44:19.110Z,66.10
2019-05-14T16:46:48.005Z,67.00
2019-05-14T16:49:18.506Z,68.90
2019-05-14T16:51:49.597Z,69.90
2019-05-14T16:54:18.362Z,68.70
2019-05-14T16:56:48.327Z,69.30
2019-05-14T16:59:18.651Z,70.60
2019-05-14T17:01:49.204Z,72.00
2019-05-14T17:04:19.103Z,71.40
2019-05-14T17:06:49.335Z,70.70
2019-05-14T17:09:18.829Z,72.00
2019-05-14T17:11:48.222Z,70.60
2019-05-14T17:14:18.391Z,68.80
2019-05-14T17:16:49.064Z,70.90
2019-05-14T17:19:18.833Z,66.70
2019-05-14T17:21:48.718Z,65.30
2019-05-14T17:24:19.981Z,63.00
2019-05-14T17:26:48.882Z,63.20
2019-05-14T17:29:19.169Z,65.50
2019-05-14T17:31:49.351Z,66.90
2019-05-14T17:34:18.777Z,65.30
2019-05-14T17:36:48.358Z,65.30
2019-05-14T17:39:18.782Z,66.80
2019-05-14T17:41:48.550Z,66.00
2019-05-14T17:44:17.647Z,66.10
2019-05-14T17:46:48.706Z,68.50
2019-05-14T17:49:19.140Z,69.90
2019-05-14T17:51:48.463Z,71.40
2019-05-14T17:54:18.540Z,71.80
2019-05-14T17:56:48.582Z,74.60
2019-05-14T17:59:19.130Z,74.40
2019-05-14T18:01:48.320Z,72.10
2019-05-14T18:04:18.385Z,76.30
2019-05-14T18:06:48.856Z,77.60
2019-05-14T18:09:19.824Z,79.80
2019-05-14T18:11:49.125Z,77.80
2019-05-14T18:14:19.048Z,81.20
2019-05-14T18:16:48.112Z,81.00
2019-05-14T18:19:18.262Z,78.80
2019-05-14T18:21:48.626Z,81.50
2019-05-14T18:24:18.955Z,82.60
2019-05-14T18:26:48.186Z,83.50
2019-05-14T18:29:18.894Z,84.40
2019-05-14T18:31:53.121Z,85.40
2019-05-14T18:34:18.939Z,85.70
2019-05-14T18:36:50.508Z,86.70
2019-05-14T18:39:20.850Z,88.30
2019-05-14T18:41:50.272Z,89.80
2019-05-14T18:44:19.208Z,90.30
2019-05-14T18:46:48.591Z,90.60
2019-05-14T18:49:19.496Z,91.00
2019-05-14T18:51:50.100Z,91.50
2019-05-14T18:54:21.790Z,91.50
2019-05-14T18:56:50.998Z,91.60
2019-05-14T18:59:21.398Z,92.00
2019-05-14T19:01:53.693Z,92.40
2019-05-14T19:04:21.242Z,92.60
2019-05-14T19:06:52.948Z,93.10
2019-05-14T19:09:21.753Z,93.60
2019-05-14T19:11:50.801Z,94.00
2019-05-14T19:14:19.622Z,94.20
2019-05-14T19:16:48.905Z,94.10
2019-05-14T19:19:20.487Z,94.20
2019-05-14T19:21:48.900Z,94.60
2019-05-14T19:24:19.052Z,94.80
2019-05-14T19:26:49.296Z,95.00
2019-05-14T19:29:19.088Z,95.10
2019-05-14T19:31:48.197Z,95.40
2019-05-14T19:34:19.242Z,95.40
2019-05-14T19:36:47.725Z,95.40
2019-05-14T19:39:18.616Z,95.50
2019-05-14T19:41:48.378Z,95.80
2019-05-14T19:44:19.146Z,96.00
2019-05-14T19:46:49.246Z,96.10
2019-05-14T19:49:18.536Z,96.20
2019-05-14T19:51:48.293Z,96.20
2019-05-14T19:54:19.414Z,96.20
2019-05-14T19:56:56.437Z,96.20
2019-05-14T19:59:18.379Z,96.20
2019-05-14T20:01:48.393Z,96.20
2019-05-14T20:04:18.281Z,96.30
2019-05-14T20:06:49.443Z,96.50
2019-05-14T20:09:36.179Z,96.80
2019-05-14T20:12:05.053Z,96.90
2019-05-14T20:14:33.857Z,97.00
2019-05-14T20:17:02.716Z,97.30
2019-05-14T20:19:52.085Z,97.40
2019-05-14T20:22:20.955Z,97.50
2019-05-14T20:24:49.905Z,97.70
2019-05-14T20:27:19.076Z,97.80
2019-05-14T20:29:48.675Z,97.90
2019-05-14T20:32:20.565Z,98.10
2019-05-14T20:34:49.366Z,98.40
2019-05-14T20:37:18.971Z,98.10
2019-05-14T20:39:48.370Z,98.20
2019-05-14T20:42:18.482Z,98.20
2019-05-14T20:44:49.178Z,98.10
2019-05-14T20:47:18.964Z,98.20
2019-05-14T20:49:47.956Z,98.20
2019-05-14T20:52:19.220Z,98.30
2019-05-14T20:54:47.277Z,98.20
2019-05-14T20:57:26.395Z,98.10
2019-05-14T20:59:48.214Z,98.00
2019-05-14T21:02:18.645Z,97.90
2019-05-14T21:04:53.530Z,98.00
2019-05-14T21:07:18.422Z,98.10
2019-05-14T21:09:49.281Z,98.10
2019-05-14T21:12:18.850Z,98.00
2019-05-14T21:14:49.199Z,98.10
2019-05-14T21:17:19.131Z,98.10
2019-05-14T21:19:49.216Z,98.00
2019-05-14T21:22:19.098Z,97.90
2019-05-14T21:24:52.478Z,98.00
2019-05-14T21:27:18.921Z,98.20
2019-05-14T21:29:48.900Z,98.30
2019-05-14T21:32:19.659Z,98.30
2019-05-14T21:34:49.116Z,98.20
2019-05-14T21:37:31.474Z,98.50
2019-05-14T21:40:00.304Z,98.50
2019-05-14T21:42:29.644Z,98.70
2019-05-14T21:44:58.566Z,98.80
2019-05-14T21:47:28.568Z,98.80
2019-05-14T21:49:58.152Z,98.80
2019-05-14T21:52:28.904Z,98.90
2019-05-14T21:54:58.620Z,98.90
2019-05-14T21:57:28.401Z,98.90
2019-05-14T21:59:58.813Z,98.90
2019-05-14T22:02:30.487Z,98.80
2019-05-14T22:05:01.503Z,98.80
2019-05-14T22:07:31.349Z,98.80
2019-05-14T22:10:00.225Z,98.90
2019-05-14T22:12:29.188Z,99.10
2019-05-14T22:14:58.989Z,99.00
2019-05-14T22:17:28.620Z,99.00
2019-05-14T22:19:58.416Z,99.10
2019-05-14T22:22:27.779Z,99.10
2019-05-14T22:24:58.202Z,99.00
2019-05-14T22:27:28.134Z,99.00
2019-05-14T22:29:58.622Z,98.90
2019-05-14T22:32:28.568Z,98.70
2019-05-14T22:34:58.544Z,98.60
2019-05-14T22:37:28.068Z,98.50
2019-05-14T22:39:58.997Z,98.00
2019-05-14T22:42:28.237Z,97.40
2019-05-14T22:44:58.325Z,97.60
2019-05-14T22:47:27.187Z,97.60
2019-05-14T22:49:59.070Z,97.40
2019-05-14T22:52:28.428Z,97.10
2019-05-14T22:54:58.623Z,97.00
2019-05-14T22:57:30.844Z,97.40
2019-05-14T22:59:58.143Z,98.10
2019-05-14T23:02:28.442Z,98.30
2019-05-14T23:04:58.515Z,98.60
2019-05-14T23:07:27.898Z,98.60
2019-05-14T23:09:58.937Z,98.70
2019-05-14T23:12:28.685Z,98.80
2019-05-14T23:14:58.187Z,98.80
2019-05-14T23:17:28.056Z,98.90
2019-05-14T23:19:58.078Z,98.90
2019-05-14T23:22:29.668Z,98.90
2019-05-14T23:24:59.202Z,98.90
2019-05-14T23:27:29.376Z,98.90
2019-05-14T23:29:58.697Z,98.20
2019-05-14T23:32:28.550Z,98.00
2019-05-14T23:34:58.436Z,98.00
2019-05-14T23:37:29.142Z,97.80
2019-05-14T23:39:59.515Z,97.70
2019-05-14T23:42:28.604Z,97.60
2019-05-14T23:44:58.567Z,97.40
2019-05-14T23:47:28.923Z,97.30
2019-05-14T23:49:58.402Z,97.30
2019-05-14T23:52:29.270Z,97.30
2019-05-14T23:54:57.780Z,97.00
2019-05-14T23:57:28.713Z,96.90
2019-05-14T23:59:57.921Z,97.20
